createdAt,value
2019-01-23T00:00:16.137Z,995.06
2019-01-23T00:01:16.142Z,995.05
2019-01-23T00:02:16.153Z,995.05
2019-01-23T00:03:16.157Z,995.04
2019-01-23T00:04:16.169Z,995.02
2019-01-23T00:05:16.172Z,995.01
2019-01-23T00:06:16.189Z,994.98
2019-01-23T00:07:16.187Z,994.98
2019-01-23T00:08:16.196Z,994.96
2019-01-23T00:09:16.204Z,995.00
2019-01-23T00:10:16.218Z,994.98
2019-01-23T00:11:16.222Z,994.98
2019-01-23T00:12:16.226Z,994.97
2019-01-23T00:13:16.233Z,994.98
2019-01-23T00:14:16.261Z,994.95
2019-01-23T00:15:16.252Z,994.96
2019-01-23T00:16:16.261Z,994.97
2019-01-23T00:17:16.270Z,994.96
2019-01-23T00:18:16.273Z,994.95
2019-01-23T00:19:16.286Z,994.90
2019-01-23T00:20:16.299Z,994.93
2019-01-23T00:21:16.298Z,994.90
2019-01-23T00:22:16.306Z,994.89
2019-01-23T00:23:16.313Z,994.89
2019-01-23T00:24:16.322Z,994.85
2019-01-23T00:25:16.331Z,994.89
2019-01-23T00:26:16.349Z,994.85
2019-01-23T00:27:16.350Z,994.85
2019-01-23T00:28:16.360Z,994.84
2019-01-23T00:29:16.359Z,994.82
2019-01-23T00:30:16.367Z,994.78
2019-01-23T00:31:16.378Z,994.74
2019-01-23T00:32:16.383Z,994.74
2019-01-23T00:33:16.445Z,994.71
2019-01-23T00:34:16.537Z,994.67
2019-01-23T00:35:16.509Z,994.66
2019-01-23T00:36:16.414Z,994.70
2019-01-23T00:37:16.423Z,994.68
2019-01-23T00:38:16.426Z,994.68
2019-01-23T00:39:16.434Z,994.65
2019-01-23T00:40:16.452Z,994.62
2019-01-23T00:41:16.461Z,994.61
2019-01-23T00:42:16.462Z,994.64
2019-01-23T00:43:16.465Z,994.63
2019-01-23T00:44:16.480Z,994.59
2019-01-23T00:45:16.480Z,994.58
2019-01-23T00:46:16.488Z,994.56
2019-01-23T00:47:16.496Z,994.56
2019-01-23T00:48:16.508Z,994.56
2019-01-23T00:49:16.511Z,994.54
2019-01-23T00:50:16.517Z,994.53
2019-01-23T00:51:16.536Z,994.50
2019-01-23T00:52:16.535Z,994.55
2019-01-23T00:53:16.539Z,994.53
2019-01-23T00:54:16.554Z,994.54
2019-01-23T00:55:16.556Z,994.54
2019-01-23T00:56:16.567Z,994.52
2019-01-23T00:57:16.568Z,994.52
2019-01-23T00:58:16.578Z,994.52
2019-01-23T00:59:16.585Z,994.50
2019-01-23T01:00:16.595Z,994.51
2019-01-23T01:01:16.612Z,994.54
2019-01-23T01:02:16.613Z,994.48
2019-01-23T01:03:16.616Z,994.48
2019-01-23T01:04:16.617Z,994.51
2019-01-23T01:05:16.633Z,994.49
2019-01-23T01:06:16.645Z,994.52
2019-01-23T01:07:16.642Z,994.55
2019-01-23T01:08:16.649Z,994.51
2019-01-23T01:09:16.669Z,994.48
2019-01-23T01:10:16.674Z,994.51
2019-01-23T01:11:16.674Z,994.53
2019-01-23T01:12:16.683Z,994.51
2019-01-23T01:13:16.685Z,994.52
2019-01-23T01:14:16.696Z,994.50
2019-01-23T01:15:16.704Z,994.55
2019-01-23T01:16:16.709Z,994.53
2019-01-23T01:17:16.720Z,994.51
2019-01-23T01:18:16.728Z,994.52
2019-01-23T01:19:16.730Z,994.52
2019-01-23T01:20:16.738Z,994.51
2019-01-23T01:21:16.745Z,994.50
2019-01-23T01:22:16.757Z,994.50
2019-01-23T01:23:16.777Z,994.47
2019-01-23T01:24:16.778Z,994.44
2019-01-23T01:25:16.777Z,994.45
2019-01-23T01:26:16.781Z,994.45
2019-01-23T01:27:16.789Z,994.49
2019-01-23T01:28:16.799Z,994.46
2019-01-23T01:29:16.811Z,994.44
2019-01-23T01:30:16.813Z,994.44
2019-01-23T01:31:16.818Z,994.47
2019-01-23T01:32:16.847Z,994.43
2019-01-23T01:33:16.841Z,994.42
2019-01-23T01:34:16.840Z,994.40
2019-01-23T01:35:16.899Z,994.35
2019-01-23T01:36:16.854Z,994.35
2019-01-23T01:37:16.867Z,994.37
2019-01-23T01:38:16.869Z,994.41
2019-01-23T01:39:16.874Z,994.38
2019-01-23T01:40:16.938Z,994.37
2019-01-23T01:41:16.890Z,994.39
2019-01-23T01:42:16.898Z,994.35
2019-01-23T01:43:16.903Z,994.37
2019-01-23T01:44:16.916Z,994.39
2019-01-23T01:45:16.918Z,994.36
2019-01-23T01:46:16.929Z,994.40
2019-01-23T01:47:16.932Z,994.39
2019-01-23T01:48:16.949Z,994.39
2019-01-23T01:49:16.951Z,994.40
2019-01-23T01:50:16.960Z,994.37
2019-01-23T01:51:16.965Z,994.36
2019-01-23T01:52:16.979Z,994.39
2019-01-23T01:53:16.985Z,994.33
2019-01-23T01:54:16.995Z,994.36
2019-01-23T01:55:16.999Z,994.28
2019-01-23T01:56:17.013Z,994.32
2019-01-23T01:57:17.009Z,994.30
2019-01-23T01:58:17.017Z,994.32
2019-01-23T01:59:17.024Z,994.34
2019-01-23T02:00:17.028Z,994.33
2019-01-23T02:01:17.041Z,994.33
2019-01-23T02:02:17.051Z,994.30
2019-01-23T02:03:17.064Z,994.31
2019-01-23T02:04:17.061Z,994.30
2019-01-23T02:05:17.091Z,994.27
2019-01-23T02:06:17.093Z,994.29
2019-01-23T02:07:17.084Z,994.25
2019-01-23T02:08:17.087Z,994.23
2019-01-23T02:09:17.099Z,994.21
2019-01-23T02:10:17.104Z,994.23
2019-01-23T02:11:17.112Z,994.20
2019-01-23T02:12:17.142Z,994.19
2019-01-23T02:13:17.129Z,994.22
2019-01-23T02:14:17.135Z,994.21
2019-01-23T02:15:17.149Z,994.23
2019-01-23T02:16:17.151Z,994.18
2019-01-23T02:17:17.164Z,994.19
2019-01-23T02:18:17.162Z,994.18
2019-01-23T02:19:17.175Z,994.16
2019-01-23T02:20:17.177Z,994.20
2019-01-23T02:21:17.186Z,994.19
2019-01-23T02:22:17.201Z,994.18
2019-01-23T02:23:17.197Z,994.18
2019-01-23T02:24:17.206Z,994.19
2019-01-23T02:25:17.239Z,994.17
2019-01-23T02:26:17.222Z,994.14
2019-01-23T02:27:17.225Z,994.16
2019-01-23T02:28:17.228Z,994.10
2019-01-23T02:29:17.234Z,994.14
2019-01-23T02:30:17.242Z,994.12
2019-01-23T02:31:17.248Z,994.10
2019-01-23T02:32:17.258Z,994.08
2019-01-23T02:33:17.269Z,994.09
2019-01-23T02:34:17.272Z,994.11
2019-01-23T02:35:17.312Z,994.09
2019-01-23T02:36:17.294Z,994.11
2019-01-23T02:37:17.301Z,994.12
2019-01-23T02:38:17.332Z,994.06
2019-01-23T02:39:17.310Z,994.07
2019-01-23T02:40:17.319Z,994.06
2019-01-23T02:41:17.322Z,994.08
2019-01-23T02:42:17.334Z,994.00
2019-01-23T02:43:17.375Z,993.99
2019-01-23T02:44:17.348Z,994.01
2019-01-23T02:45:17.356Z,993.95
2019-01-23T02:46:17.358Z,993.99
2019-01-23T02:47:17.380Z,993.92
2019-01-23T02:48:17.372Z,993.97
2019-01-23T02:49:17.389Z,993.97
2019-01-23T02:50:17.394Z,993.93
2019-01-23T02:51:17.401Z,993.92
2019-01-23T02:52:17.407Z,993.89
2019-01-23T02:53:17.413Z,993.90
2019-01-23T02:54:17.419Z,993.88
2019-01-23T02:55:17.438Z,993.86
2019-01-23T02:56:17.434Z,993.89
2019-01-23T02:57:17.438Z,993.88
2019-01-23T02:58:17.475Z,993.89
2019-01-23T02:59:17.672Z,993.92
2019-01-23T03:00:17.467Z,993.84
2019-01-23T03:01:17.468Z,993.91
2019-01-23T03:02:17.478Z,993.88
2019-01-23T03:03:17.487Z,993.88
2019-01-23T03:04:17.491Z,993.87
2019-01-23T03:05:17.521Z,993.84
2019-01-23T03:06:17.506Z,993.85
2019-01-23T03:07:17.516Z,993.82
2019-01-23T03:08:17.519Z,993.82
2019-01-23T03:09:17.530Z,993.79
2019-01-23T03:10:17.551Z,993.81
2019-01-23T03:11:17.547Z,993.78
2019-01-23T03:12:17.553Z,993.73
2019-01-23T03:13:17.567Z,993.75
2019-01-23T03:14:17.570Z,993.77
2019-01-23T03:15:17.585Z,993.75
2019-01-23T03:16:17.586Z,993.72
2019-01-23T03:17:17.589Z,993.75
2019-01-23T03:18:17.598Z,993.76
2019-01-23T03:19:17.603Z,993.75
2019-01-23T03:20:17.611Z,993.69
2019-01-23T03:21:17.618Z,993.74
2019-01-23T03:22:17.633Z,993.69
2019-01-23T03:23:17.632Z,993.70
2019-01-23T03:24:17.642Z,993.69
2019-01-23T03:25:17.645Z,993.66
2019-01-23T03:26:17.653Z,993.67
2019-01-23T03:27:17.660Z,993.69
2019-01-23T03:28:17.668Z,993.69
2019-01-23T03:29:24.483Z,993.69
2019-01-23T03:30:17.748Z,993.67
2019-01-23T03:31:17.702Z,993.70
2019-01-23T03:32:17.698Z,993.68
2019-01-23T03:33:17.705Z,993.69
2019-01-23T03:34:17.712Z,993.67
2019-01-23T03:35:17.722Z,993.69
2019-01-23T03:36:17.730Z,993.65
2019-01-23T03:37:17.738Z,993.66
2019-01-23T03:38:17.761Z,993.66
2019-01-23T03:39:17.748Z,993.67
2019-01-23T03:40:17.758Z,993.68
2019-01-23T03:41:17.762Z,993.69
2019-01-23T03:42:17.770Z,993.69
2019-01-23T03:43:17.774Z,993.68
2019-01-23T03:44:17.782Z,993.68
2019-01-23T03:45:17.789Z,993.69
2019-01-23T03:46:17.797Z,993.73
2019-01-23T03:47:17.834Z,993.70
2019-01-23T03:48:17.813Z,993.70
2019-01-23T03:49:17.820Z,993.70
2019-01-23T03:50:17.832Z,993.73
2019-01-23T03:51:17.836Z,993.70
2019-01-23T03:52:17.843Z,993.66
2019-01-23T03:53:17.855Z,993.69
2019-01-23T03:54:17.858Z,993.68
2019-01-23T03:55:17.873Z,993.66
2019-01-23T03:56:17.871Z,993.69
2019-01-23T03:57:17.879Z,993.65
2019-01-23T03:58:17.885Z,993.69
2019-01-23T03:59:17.893Z,993.69
2019-01-23T04:00:18.488Z,993.66
2019-01-23T04:01:17.914Z,993.69
2019-01-23T04:02:17.918Z,993.73
2019-01-23T04:03:17.922Z,993.73
2019-01-23T04:04:17.925Z,993.72
2019-01-23T04:05:17.937Z,993.69
2019-01-23T04:06:17.947Z,993.72
2019-01-23T04:07:17.954Z,993.70
2019-01-23T04:08:17.956Z,993.66
2019-01-23T04:09:17.981Z,993.68
2019-01-23T04:10:17.981Z,993.71
2019-01-23T04:11:17.971Z,993.70
2019-01-23T04:12:17.992Z,993.68
2019-01-23T04:13:17.995Z,993.67
2019-01-23T04:14:17.990Z,993.72
2019-01-23T04:15:18.023Z,993.72
2019-01-23T04:16:18.007Z,993.66
2019-01-23T04:17:18.011Z,993.70
2019-01-23T04:18:18.034Z,993.68
2019-01-23T04:19:18.026Z,993.68
2019-01-23T04:20:18.097Z,993.65
2019-01-23T04:21:18.040Z,993.64
2019-01-23T04:22:18.056Z,993.61
2019-01-23T04:23:18.051Z,993.63
2019-01-23T04:24:18.061Z,993.58
2019-01-23T04:25:18.067Z,993.63
2019-01-23T04:26:18.076Z,993.62
2019-01-23T04:27:18.082Z,993.64
2019-01-23T04:28:18.090Z,993.62
2019-01-23T04:29:18.114Z,993.62
2019-01-23T04:30:18.112Z,993.61
2019-01-23T04:31:18.122Z,993.59
2019-01-23T04:32:18.119Z,993.58
2019-01-23T04:33:18.136Z,993.57
2019-01-23T04:34:18.131Z,993.55
2019-01-23T04:35:18.144Z,993.63
2019-01-23T04:36:18.149Z,993.58
2019-01-23T04:37:18.151Z,993.58
2019-01-23T04:38:18.161Z,993.60
2019-01-23T04:39:18.177Z,993.65
2019-01-23T04:40:18.177Z,993.59
2019-01-23T04:41:18.188Z,993.64
2019-01-23T04:42:18.190Z,993.58
2019-01-23T04:43:18.203Z,993.66
2019-01-23T04:44:18.206Z,993.65
2019-01-23T04:45:18.225Z,993.67
2019-01-23T04:46:18.232Z,993.68
2019-01-23T04:47:18.228Z,993.67
2019-01-23T04:48:18.253Z,993.66
2019-01-23T04:49:18.239Z,993.64
2019-01-23T04:50:18.269Z,993.64
2019-01-23T04:51:18.251Z,993.63
2019-01-23T04:52:18.258Z,993.63
2019-01-23T04:53:18.275Z,993.64
2019-01-23T04:54:18.276Z,993.65
2019-01-23T04:55:18.286Z,993.69
2019-01-23T04:56:18.299Z,993.66
2019-01-23T04:57:18.299Z,993.66
2019-01-23T04:58:18.317Z,993.69
2019-01-23T04:59:18.308Z,993.68
2019-01-23T05:00:18.317Z,993.67
2019-01-23T05:01:18.321Z,993.69
2019-01-23T05:02:18.329Z,993.66
2019-01-23T05:03:18.349Z,993.66
2019-01-23T05:04:18.342Z,993.65
2019-01-23T05:05:18.348Z,993.66
2019-01-23T05:06:18.358Z,993.68
2019-01-23T05:07:18.370Z,993.64
2019-01-23T05:08:18.368Z,993.73
2019-01-23T05:09:18.378Z,993.68
2019-01-23T05:10:18.386Z,993.69
2019-01-23T05:11:18.394Z,993.62
2019-01-23T05:12:18.401Z,993.67
2019-01-23T05:13:18.415Z,993.65
2019-01-23T05:14:18.422Z,993.67
2019-01-23T05:15:18.419Z,993.70
2019-01-23T05:16:18.438Z,993.64
2019-01-23T05:17:18.434Z,993.63
2019-01-23T05:18:18.442Z,993.65
2019-01-23T05:19:18.449Z,993.59
2019-01-23T05:20:18.452Z,993.62
2019-01-23T05:21:18.497Z,993.61
2019-01-23T05:22:18.467Z,993.64
2019-01-23T05:23:18.494Z,993.64
2019-01-23T05:24:18.501Z,993.64
2019-01-23T05:25:18.490Z,993.67
2019-01-23T05:26:18.500Z,993.67
2019-01-23T05:27:18.505Z,993.70
2019-01-23T05:28:18.514Z,993.70
2019-01-23T05:29:18.519Z,993.67
2019-01-23T05:30:18.527Z,993.66
2019-01-23T05:31:18.554Z,993.65
2019-01-23T05:32:18.546Z,993.67
2019-01-23T05:33:18.545Z,993.62
2019-01-23T05:34:18.598Z,993.59
2019-01-23T05:35:18.568Z,993.62
2019-01-23T05:36:18.575Z,993.63
2019-01-23T05:37:18.575Z,993.65
2019-01-23T05:38:18.589Z,993.64
2019-01-23T05:39:18.589Z,993.64
2019-01-23T05:40:18.605Z,993.60
2019-01-23T05:41:18.601Z,993.61
2019-01-23T05:42:18.608Z,993.63
2019-01-23T05:43:18.618Z,993.58
2019-01-23T05:44:18.628Z,993.60
2019-01-23T05:45:18.636Z,993.61
2019-01-23T05:46:18.649Z,993.59
2019-01-23T05:47:18.669Z,993.62
2019-01-23T05:48:18.653Z,993.62
2019-01-23T05:49:18.657Z,993.62
2019-01-23T05:50:18.664Z,993.66
2019-01-23T05:51:18.670Z,993.66
2019-01-23T05:52:18.704Z,993.70
2019-01-23T05:53:18.688Z,993.69
2019-01-23T05:54:18.691Z,993.72
2019-01-23T05:55:18.742Z,993.69
2019-01-23T05:56:18.712Z,993.70
2019-01-23T05:57:18.728Z,993.67
2019-01-23T05:58:18.722Z,993.65
2019-01-23T05:59:18.787Z,993.66
2019-01-23T06:00:18.734Z,993.70
2019-01-23T06:01:18.745Z,993.68
2019-01-23T06:02:18.749Z,993.67
2019-01-23T06:03:18.772Z,993.67
2019-01-23T06:04:18.773Z,993.69
2019-01-23T06:05:18.787Z,993.67
2019-01-23T06:06:18.781Z,993.68
2019-01-23T06:07:18.831Z,993.71
2019-01-23T06:08:18.807Z,993.72
2019-01-23T06:09:18.804Z,993.71
2019-01-23T06:10:18.836Z,993.72
2019-01-23T06:11:18.824Z,993.70
2019-01-23T06:12:18.824Z,993.71
2019-01-23T06:13:18.830Z,993.71
2019-01-23T06:14:18.865Z,993.75
2019-01-23T06:15:18.854Z,993.72
2019-01-23T06:16:18.861Z,993.66
2019-01-23T06:17:18.863Z,993.74
2019-01-23T06:18:18.868Z,993.70
2019-01-23T06:19:18.880Z,993.71
2019-01-23T06:20:18.880Z,993.69
2019-01-23T06:21:18.892Z,993.71
2019-01-23T06:22:18.893Z,993.69
2019-01-23T06:23:18.917Z,993.73
2019-01-23T06:24:18.908Z,993.71
2019-01-23T06:25:18.923Z,993.75
2019-01-23T06:26:18.922Z,993.72
2019-01-23T06:27:18.951Z,993.74
2019-01-23T06:28:18.938Z,993.76
2019-01-23T06:29:18.946Z,993.75
2019-01-23T06:30:18.952Z,993.74
2019-01-23T06:31:18.963Z,993.70
2019-01-23T06:32:18.968Z,993.73
2019-01-23T06:33:18.974Z,993.70
2019-01-23T06:34:18.982Z,993.70
2019-01-23T06:35:18.988Z,993.67
2019-01-23T06:36:18.994Z,993.73
2019-01-23T06:37:19.004Z,993.70
2019-01-23T06:38:19.010Z,993.72
2019-01-23T06:39:19.017Z,993.70
2019-01-23T06:40:19.022Z,993.68
2019-01-23T06:41:19.067Z,993.68
2019-01-23T06:42:19.036Z,993.72
2019-01-23T06:43:19.045Z,993.75
2019-01-23T06:44:19.057Z,993.76
2019-01-23T06:45:19.071Z,993.76
2019-01-23T06:46:19.074Z,993.77
2019-01-23T06:47:19.083Z,993.77
2019-01-23T06:48:19.095Z,993.79
2019-01-23T06:49:19.152Z,993.81
2019-01-23T06:50:19.099Z,993.77
2019-01-23T06:51:19.117Z,993.78
2019-01-23T06:52:19.142Z,993.81
2019-01-23T06:53:19.133Z,993.80
2019-01-23T06:54:19.176Z,993.77
2019-01-23T06:55:19.543Z,993.79
2019-01-23T06:56:19.347Z,993.78
2019-01-23T06:57:19.182Z,993.78
2019-01-23T06:58:19.183Z,993.80
2019-01-23T06:59:19.176Z,993.84
2019-01-23T07:00:19.174Z,993.85
2019-01-23T07:01:19.183Z,993.83
2019-01-23T07:02:19.193Z,993.84
2019-01-23T07:03:19.193Z,993.84
2019-01-23T07:04:19.230Z,993.85
2019-01-23T07:05:19.224Z,993.83
2019-01-23T07:06:19.216Z,993.82
2019-01-23T07:07:19.235Z,993.83
2019-01-23T07:08:19.233Z,993.81
2019-01-23T07:09:19.256Z,993.81
2019-01-23T07:10:19.244Z,993.79
2019-01-23T07:11:19.320Z,993.80
2019-01-23T07:12:19.258Z,993.80
2019-01-23T07:13:19.341Z,993.84
2019-01-23T07:14:19.274Z,993.84
2019-01-23T07:15:19.323Z,993.81
2019-01-23T07:16:19.606Z,993.85
2019-01-23T07:17:19.308Z,993.86
2019-01-23T07:18:19.309Z,993.91
2019-01-23T07:19:19.318Z,993.93
2019-01-23T07:20:19.325Z,993.93
2019-01-23T07:21:19.434Z,993.93
2019-01-23T07:22:19.424Z,993.97
2019-01-23T07:23:19.337Z,993.93
2019-01-23T07:24:19.361Z,993.92
2019-01-23T07:25:19.358Z,993.90
2019-01-23T07:26:19.381Z,993.90
2019-01-23T07:27:19.369Z,993.89
2019-01-23T07:28:19.375Z,993.89
2019-01-23T07:29:19.386Z,993.91
2019-01-23T07:30:24.130Z,993.90
2019-01-23T07:31:19.405Z,993.88
2019-01-23T07:32:19.429Z,993.91
2019-01-23T07:33:19.444Z,993.92
2019-01-23T07:34:19.448Z,993.90
2019-01-23T07:35:19.469Z,993.92
2019-01-23T07:36:19.768Z,993.92
2019-01-23T07:38:20.204Z,993.95
2019-01-23T07:39:20.211Z,993.93
2019-01-23T07:40:20.955Z,993.96
2019-01-23T07:41:19.489Z,993.95
2019-01-23T07:42:19.479Z,993.97
2019-01-23T07:43:19.513Z,993.96
2019-01-23T07:44:19.517Z,993.95
2019-01-23T07:45:19.616Z,993.99
2019-01-23T07:46:19.534Z,994.02
2019-01-23T07:47:19.519Z,993.99
2019-01-23T07:48:19.534Z,993.98
2019-01-23T07:49:19.532Z,994.00
2019-01-23T07:50:19.538Z,993.96
2019-01-23T07:51:19.553Z,993.99
2019-01-23T07:52:19.573Z,993.94
2019-01-23T07:53:19.598Z,993.96
2019-01-23T07:54:19.588Z,993.95
2019-01-23T07:55:19.638Z,993.99
2019-01-23T07:56:19.592Z,993.95
2019-01-23T07:57:19.595Z,993.94
2019-01-23T07:58:19.594Z,993.96
2019-01-23T07:59:19.603Z,993.97
2019-01-23T08:00:19.637Z,993.97
2019-01-23T08:01:19.617Z,993.99
2019-01-23T08:02:19.678Z,993.99
2019-01-23T08:03:19.635Z,993.97
2019-01-23T08:04:19.639Z,993.98
2019-01-23T08:05:19.840Z,993.96
2019-01-23T08:06:19.661Z,993.99
2019-01-23T08:07:19.787Z,993.99
2019-01-23T08:08:19.703Z,993.98
2019-01-23T08:09:19.688Z,993.97
2019-01-23T08:10:19.710Z,993.98
2019-01-23T08:11:19.719Z,994.03
2019-01-23T08:12:19.714Z,994.01
2019-01-23T08:13:19.788Z,993.96
2019-01-23T08:14:19.717Z,994.01
2019-01-23T08:15:19.740Z,994.06
2019-01-23T08:16:19.752Z,993.98
2019-01-23T08:17:19.806Z,994.02
2019-01-23T08:18:19.751Z,994.05
2019-01-23T08:19:19.767Z,994.10
2019-01-23T08:20:19.767Z,994.05
2019-01-23T08:21:19.771Z,994.06
2019-01-23T08:22:19.782Z,994.06
2019-01-23T08:23:19.791Z,994.04
2019-01-23T08:25:19.809Z,994.04
2019-01-23T08:26:19.805Z,994.04
2019-01-23T08:27:19.826Z,994.03
2019-01-23T08:28:19.820Z,994.00
2019-01-23T08:29:19.839Z,994.01
2019-01-23T08:30:19.833Z,994.03
2019-01-23T08:31:19.846Z,994.03
2019-01-23T08:32:19.850Z,994.07
2019-01-23T08:33:19.858Z,994.03
2019-01-23T08:34:19.868Z,994.05
2019-01-23T08:35:19.872Z,994.05
2019-01-23T08:36:19.881Z,994.07
2019-01-23T08:37:19.889Z,994.05
2019-01-23T08:38:19.895Z,994.05
2019-01-23T08:39:22.370Z,994.09
2019-01-23T08:41:19.920Z,994.12
2019-01-23T08:42:21.752Z,994.12
2019-01-23T08:43:19.936Z,994.10
2019-01-23T08:44:19.941Z,994.16
2019-01-23T08:45:19.959Z,994.17
2019-01-23T08:46:21.073Z,994.12
2019-01-23T08:47:19.968Z,994.18
2019-01-23T08:48:20.221Z,994.10
2019-01-23T08:49:19.981Z,994.14
2019-01-23T08:50:20.007Z,994.14
2019-01-23T08:51:20.008Z,994.14
2019-01-23T08:52:20.004Z,994.12
2019-01-23T08:53:20.016Z,994.12
2019-01-23T08:54:20.021Z,994.16
2019-01-23T08:55:20.030Z,994.18
2019-01-23T08:56:20.036Z,994.14
2019-01-23T08:57:20.044Z,994.17
2019-01-23T08:58:20.056Z,994.13
2019-01-23T08:59:20.058Z,994.16
2019-01-23T09:00:20.064Z,994.19
2019-01-23T09:01:20.075Z,994.18
2019-01-23T09:02:20.086Z,994.14
2019-01-23T09:03:20.091Z,994.17
2019-01-23T09:04:20.099Z,994.17
2019-01-23T09:05:20.116Z,994.19
2019-01-23T09:06:20.131Z,994.16
2019-01-23T09:07:20.128Z,994.17
2019-01-23T09:08:20.131Z,994.22
2019-01-23T09:09:20.136Z,994.21
2019-01-23T09:10:20.148Z,994.22
2019-01-23T09:11:20.148Z,994.22
2019-01-23T09:12:20.160Z,994.21
2019-01-23T09:13:20.166Z,994.25
2019-01-23T09:14:20.176Z,994.21
2019-01-23T09:15:20.182Z,994.27
2019-01-23T09:16:20.211Z,994.28
2019-01-23T09:17:20.209Z,994.27
2019-01-23T09:18:20.221Z,994.26
2019-01-23T09:19:20.212Z,994.30
2019-01-23T09:20:20.432Z,994.27
2019-01-23T09:21:20.733Z,994.32
2019-01-23T09:22:20.237Z,994.32
2019-01-23T09:23:20.249Z,994.38
2019-01-23T09:24:20.266Z,994.36
2019-01-23T09:25:20.280Z,994.34
2019-01-23T09:26:20.269Z,994.35
2019-01-23T09:27:20.274Z,994.36
2019-01-23T09:28:20.295Z,994.33
2019-01-23T09:29:20.290Z,994.34
2019-01-23T09:30:20.308Z,994.38
2019-01-23T09:31:20.314Z,994.37
2019-01-23T09:32:20.314Z,994.42
2019-01-23T09:33:20.330Z,994.40
2019-01-23T09:34:20.330Z,994.42
2019-01-23T09:35:20.338Z,994.46
2019-01-23T09:36:20.380Z,994.43
2019-01-23T09:37:20.355Z,994.41
2019-01-23T09:38:20.410Z,994.46
2019-01-23T09:39:20.385Z,994.41
2019-01-23T09:40:20.396Z,994.43
2019-01-23T09:41:20.400Z,994.46
2019-01-23T09:42:20.394Z,994.45
2019-01-23T09:43:20.404Z,994.44
2019-01-23T09:44:20.410Z,994.42
2019-01-23T09:45:20.668Z,994.47
2019-01-23T09:46:20.426Z,994.45
2019-01-23T09:47:20.453Z,994.43
2019-01-23T09:48:20.447Z,994.47
2019-01-23T09:49:20.458Z,994.51
2019-01-23T09:50:20.461Z,994.49
2019-01-23T09:51:20.473Z,994.53
2019-01-23T09:52:20.475Z,994.50
2019-01-23T09:53:20.492Z,994.55
2019-01-23T09:54:20.492Z,994.53
2019-01-23T09:55:20.502Z,994.56
2019-01-23T09:56:20.506Z,994.55
2019-01-23T09:57:21.106Z,994.57
2019-01-23T09:58:20.524Z,994.58
2019-01-23T09:59:20.532Z,994.59
2019-01-23T10:00:20.541Z,994.57
2019-01-23T10:01:20.547Z,994.57
2019-01-23T10:02:20.559Z,994.62
2019-01-23T10:03:23.048Z,994.63
2019-01-23T10:04:20.574Z,994.63
2019-01-23T10:05:20.586Z,994.62
2019-01-23T10:06:20.611Z,994.63
2019-01-23T10:07:20.898Z,994.64
2019-01-23T10:08:20.684Z,994.62
2019-01-23T10:09:20.656Z,994.61
2019-01-23T10:10:20.622Z,994.63
2019-01-23T10:11:20.631Z,994.62
2019-01-23T10:12:20.640Z,994.66
2019-01-23T10:13:20.736Z,994.65
2019-01-23T10:14:20.669Z,994.63
2019-01-23T10:15:20.680Z,994.67
2019-01-23T10:16:20.676Z,994.66
2019-01-23T10:17:20.680Z,994.70
2019-01-23T10:18:20.688Z,994.67
2019-01-23T10:19:20.697Z,994.65
2019-01-23T10:20:20.708Z,994.64
2019-01-23T10:21:20.726Z,994.67
2019-01-23T10:22:20.735Z,994.69
2019-01-23T10:23:21.549Z,994.71
2019-01-23T10:24:20.740Z,994.70
2019-01-23T10:25:20.752Z,994.69
2019-01-23T10:26:20.800Z,994.71
2019-01-23T10:27:21.434Z,994.74
2019-01-23T10:28:20.778Z,994.72
2019-01-23T10:29:20.788Z,994.71
2019-01-23T10:30:20.794Z,994.72
2019-01-23T10:31:20.808Z,994.72
2019-01-23T10:32:20.813Z,994.64
2019-01-23T10:33:20.831Z,994.63
2019-01-23T10:34:21.270Z,994.60
2019-01-23T10:35:21.476Z,994.65
2019-01-23T10:36:24.030Z,994.60
2019-01-23T10:37:22.922Z,994.59
2019-01-23T10:38:20.943Z,994.60
2019-01-23T10:39:20.899Z,994.59
2019-01-23T10:40:20.879Z,994.61
2019-01-23T10:41:20.884Z,994.58
2019-01-23T10:42:20.901Z,994.52
2019-01-23T10:43:21.035Z,994.56
2019-01-23T10:44:20.928Z,994.57
2019-01-23T10:45:20.978Z,994.56
2019-01-23T10:46:20.968Z,994.59
2019-01-23T10:47:21.095Z,994.58
2019-01-23T10:48:20.959Z,994.60
2019-01-23T10:49:20.961Z,994.60
2019-01-23T10:50:20.964Z,994.64
2019-01-23T10:51:20.971Z,994.61
2019-01-23T10:52:20.980Z,994.62
2019-01-23T10:53:20.992Z,994.58
2019-01-23T10:54:20.998Z,994.58
2019-01-23T10:55:21.009Z,994.55
2019-01-23T10:56:21.017Z,994.55
2019-01-23T10:57:21.026Z,994.59
2019-01-23T10:58:21.044Z,994.55
2019-01-23T10:59:21.044Z,994.52
2019-01-23T11:00:21.056Z,994.57
2019-01-23T11:01:22.518Z,994.59
2019-01-23T11:02:21.373Z,994.62
2019-01-23T11:03:21.075Z,994.60
2019-01-23T11:04:21.091Z,994.63
2019-01-23T11:05:21.094Z,994.60
2019-01-23T11:06:21.101Z,994.60
2019-01-23T11:07:21.323Z,994.62
2019-01-23T11:08:21.121Z,994.64
2019-01-23T11:09:21.189Z,994.63
2019-01-23T11:10:21.133Z,994.68
2019-01-23T11:11:21.151Z,994.59
2019-01-23T11:12:21.155Z,994.61
2019-01-23T11:13:21.182Z,994.62
2019-01-23T11:14:21.271Z,994.59
2019-01-23T11:15:21.184Z,994.62
2019-01-23T11:16:21.185Z,994.55
2019-01-23T11:17:21.196Z,994.61
2019-01-23T11:18:21.215Z,994.56
2019-01-23T11:19:21.217Z,994.55
2019-01-23T11:20:21.233Z,994.54
2019-01-23T11:21:21.228Z,994.52
2019-01-23T11:22:21.241Z,994.52
2019-01-23T11:23:21.249Z,994.56
2019-01-23T11:24:21.258Z,994.54
2019-01-23T11:25:21.265Z,994.54
2019-01-23T11:26:21.273Z,994.55
2019-01-23T11:27:21.287Z,994.59
2019-01-23T11:28:21.301Z,994.58
2019-01-23T11:29:21.297Z,994.54
2019-01-23T11:30:21.304Z,994.57
2019-01-23T11:31:21.329Z,994.60
2019-01-23T11:32:21.324Z,994.61
2019-01-23T11:33:21.346Z,994.63
2019-01-23T11:34:21.352Z,994.60
2019-01-23T11:35:21.352Z,994.60
2019-01-23T11:36:21.360Z,994.63
2019-01-23T11:37:21.367Z,994.63
2019-01-23T11:38:21.386Z,994.64
2019-01-23T11:39:21.394Z,994.68
2019-01-23T11:40:21.406Z,994.69
2019-01-23T11:41:21.403Z,994.73
2019-01-23T11:42:21.423Z,994.70
2019-01-23T11:43:21.416Z,994.75
2019-01-23T11:44:21.428Z,994.74
2019-01-23T11:45:21.443Z,994.73
2019-01-23T11:46:21.443Z,994.70
2019-01-23T11:47:21.455Z,994.69
2019-01-23T11:48:21.457Z,994.73
2019-01-23T11:49:21.478Z,994.74
2019-01-23T11:50:23.149Z,994.78
2019-01-23T11:51:21.485Z,994.76
2019-01-23T11:52:21.494Z,994.75
2019-01-23T11:53:21.503Z,994.79
2019-01-23T11:54:21.734Z,994.78
2019-01-23T11:55:21.532Z,994.76
2019-01-23T11:56:21.537Z,994.77
2019-01-23T11:57:21.539Z,994.79
2019-01-23T11:58:21.544Z,994.82
2019-01-23T11:59:21.561Z,994.83
2019-01-23T12:00:21.563Z,994.85
2019-01-23T12:01:27.535Z,994.83
2019-01-23T12:02:21.576Z,994.85
2019-01-23T12:03:21.603Z,994.86
2019-01-23T12:04:21.595Z,994.86
2019-01-23T12:05:21.612Z,994.84
2019-01-23T12:06:21.617Z,994.81
2019-01-23T12:08:21.630Z,994.82
2019-01-23T12:09:21.638Z,994.78
2019-01-23T12:10:21.655Z,994.82
2019-01-23T12:11:21.658Z,994.82
2019-01-23T12:12:21.665Z,994.81
2019-01-23T12:13:21.681Z,994.83
2019-01-23T12:14:21.685Z,994.82
2019-01-23T12:15:21.695Z,994.76
2019-01-23T12:16:22.044Z,994.77
2019-01-23T12:17:21.708Z,994.79
2019-01-23T12:18:21.723Z,994.76
2019-01-23T12:19:21.730Z,994.83
2019-01-23T12:20:21.739Z,994.78
2019-01-23T12:21:21.748Z,994.76
2019-01-23T12:22:21.766Z,994.75
2019-01-23T12:23:21.805Z,994.77
2019-01-23T12:24:21.775Z,994.77
2019-01-23T12:25:21.780Z,994.79
2019-01-23T12:26:21.791Z,994.77
2019-01-23T12:27:21.799Z,994.77
2019-01-23T12:28:21.812Z,994.76
2019-01-23T12:29:21.817Z,994.74
2019-01-23T12:30:21.841Z,994.74
2019-01-23T12:31:21.850Z,994.76
2019-01-23T12:32:21.840Z,994.73